FW0211 Gilchrist TX US current weather conditions

sailwx.info

Wind from 234 at 7 knots gusting 12

Air temperature 29.4° C
Dewpoint 26.2° C

Last reported at 2020-Aug-13 08:01 UTC.
Time now 2020-Aug-13 09:15 UTC

Location: N 29°30' W 094°31'.
View on Google Maps.

See reports from other nearby stations

  
Tides and Currents Weather Stations Pressure Air Temp Water Temp Dewpoint Dewpoint Depression Visibility Wind Speed Wind Dir Waves Ship Positions
date/time (UTC)wind fromknots sea level pressurealtimeterstation pressurevisibilityair tempwater tempwave heightnotes
2020-Aug-13 08:01 234 7 gusting 12 29.4
2020-Aug-13 07:47 230 8 gusting 12 29.4
2020-Aug-13 07:31 241 7 gusting 12 29.4
2020-Aug-13 07:16 226 9 gusting 12 29.4
2020-Aug-13 07:01 233 7 gusting 12 29.4
2020-Aug-13 06:47 231 12 gusting 14 29.4
2020-Aug-13 06:31 251 10 gusting 13 29.4
2020-Aug-13 06:16 242 10 gusting 14 29.4
2020-Aug-13 06:01 226 11 gusting 14 29.4
2020-Aug-13 05:46 249 11 gusting 14 29.4
2020-Aug-13 05:31 229 12 gusting 15 30.0
2020-Aug-13 05:15 241 12 gusting 15 30.0
2020-Aug-13 05:02 212 13 gusting 16 30.0
2020-Aug-13 04:46 238 11 gusting 16 30.0
2020-Aug-13 04:31 231 10 gusting 14 30.0
2020-Aug-13 04:17 253 9 gusting 15 30.0
2020-Aug-13 04:01 226 10 gusting 15 30.0
2020-Aug-13 03:45 259 8 gusting 14 30.0
2020-Aug-13 03:31 241 10 gusting 14 30.0
2020-Aug-13 03:15 211 11 gusting 14 30.0
2020-Aug-13 03:00 215 9 gusting 14 30.0
2020-Aug-13 02:45 245 9 gusting 13 30.0
2020-Aug-13 02:30 222 9 gusting 13 30.0
2020-Aug-13 02:16 208 8 gusting 13 30.0
2020-Aug-13 02:01 211 9 gusting 13 30.0
2020-Aug-13 01:45 208 8 gusting 14 30.0
2020-Aug-13 01:31 213 8 gusting 13 30.0
2020-Aug-13 01:16 232 10 gusting 14 30.0
2020-Aug-13 01:01 244 9 gusting 15 30.0
2020-Aug-13 00:45 175 10 gusting 14 30.0
2020-Aug-13 00:31 193 10 gusting 14 30.0
2020-Aug-13 00:16 239 9 gusting 13 30.0
2020-Aug-13 00:00 211 10 gusting 13 30.6
2020-Aug-12 23:45 238 8 gusting 13 30.6
2020-Aug-12 23:30 226 8 gusting 13 30.6
2020-Aug-12 23:15 182 8 gusting 13 30.6
2020-Aug-12 23:00 241 8 gusting 13 30.6
2020-Aug-12 22:46 237 7 gusting 12 31.1
2020-Aug-12 22:30 250 10 gusting 14 30.6
2020-Aug-12 22:15 198 7 gusting 13 31.1
2020-Aug-12 22:00 246 8 gusting 13 30.6
2020-Aug-12 21:45 221 8 gusting 12 30.6
2020-Aug-12 21:30 239 7 gusting 12 31.1
2020-Aug-12 21:15 202 7 gusting 11 31.1
2020-Aug-12 21:00 236 6 gusting 10 31.1
2020-Aug-12 20:45 198 7 gusting 11 31.1
2020-Aug-12 20:30 218 9 gusting 12 31.1
2020-Aug-12 20:15 259 6 gusting 10 31.1
2020-Aug-12 20:00 227 7 gusting 11 31.1
2020-Aug-12 19:45 245 5 gusting 13 31.1
2020-Aug-12 19:30 230 7 31.1
2020-Aug-12 19:15 229 6 gusting 11 31.1
2020-Aug-12 19:00 239 6 gusting 9 31.1
2020-Aug-12 18:31 214 6 gusting 10 31.1
2020-Aug-12 18:17 228 6 gusting 11 31.1
2020-Aug-12 18:02 228 7 gusting 10 30.6
2020-Aug-12 17:46 230 6 gusting 10 31.1
2020-Aug-12 17:32 245 6 gusting 9 31.1
2020-Aug-12 17:01 248 6 gusting 8 31.1
2020-Aug-12 16:46 251 5 gusting 10 30.6
2020-Aug-12 16:32 216 6 gusting 11 30.6
2020-Aug-12 16:17 259 7 gusting 10 30.0
2020-Aug-12 16:01 240 9 gusting 12 30.6
2020-Aug-12 15:46 237 8 gusting 12 30.6
2020-Aug-12 15:16 243 8 gusting 11 30.6
2020-Aug-12 15:01 236 6 gusting 11 30.0
2020-Aug-12 14:45 263 3 gusting 6 30.0
2020-Aug-12 14:32 145 1 gusting 6 30.0
2020-Aug-12 14:15 232 6 gusting 11 28.9
2020-Aug-12 14:01 223 10 gusting 16 29.4
2020-Aug-12 13:30 247 6 gusting 10 29.4
2020-Aug-12 13:16 248 6 gusting 10 29.4
2020-Aug-12 13:01 254 7 gusting 11 30.0
2020-Aug-12 12:45 231 9 gusting 12 30.0
2020-Aug-12 12:30 238 7 gusting 13 29.4
2020-Aug-12 12:15 238 9 gusting 14 29.4
2020-Aug-12 11:45 238 6 gusting 11 29.4
2020-Aug-12 11:30 217 8 gusting 14 29.4
2020-Aug-12 11:15 249 9 gusting 15 29.4
2020-Aug-12 11:00 240 9 gusting 13 29.4
2020-Aug-12 10:46 284 11 gusting 15 29.4
2020-Aug-12 10:31 230 13 gusting 15 29.4
2020-Aug-12 10:00 224 11 gusting 13 29.4
2020-Aug-12 09:45 226 10 gusting 14 29.4
2020-Aug-12 09:30 220 8 gusting 14 29.4
2020-Aug-12 09:15 243 7 gusting 13 29.4
2020-Aug-12 09:02 246 10 gusting 13 29.4
2020-Aug-12 08:47 219 11 gusting 13 29.4
2020-Aug-12 08:33 241 6 gusting 13 29.4
2020-Aug-12 08:17 236 8 gusting 14 29.4
2020-Aug-12 08:01 210 8 gusting 14 29.4
2020-Aug-12 07:47 217 9 gusting 14 29.4
2020-Aug-12 07:31 220 9 gusting 13 29.4
2020-Aug-12 07:17 234 11 gusting 15 29.4
2020-Aug-12 07:01 206 8 gusting 13 29.4
2020-Aug-12 06:46 233 9 gusting 14 29.4
2020-Aug-12 06:31 196 10 gusting 13 29.4
2020-Aug-12 06:17 248 7 gusting 13 29.4
2020-Aug-12 06:02 212 9 gusting 13 29.4
2020-Aug-12 05:46 229 8 gusting 13 30.0
2020-Aug-12 05:31 222 7 gusting 13 29.4
2020-Aug-12 05:15 155 8 gusting 13 29.4
2020-Aug-12 05:01 181 8 gusting 13 29.4
2020-Aug-12 04:45 259 8 gusting 13 29.4
2020-Aug-12 04:30 199 7 gusting 13 30.0
2020-Aug-12 04:15 164 8 gusting 12 29.4
2020-Aug-12 04:00 250 9 gusting 15 30.0
2020-Aug-12 03:46 206 9 gusting 13 30.0
2020-Aug-12 03:30 216 8 gusting 12 30.0
2020-Aug-12 03:15 207 7 gusting 13 30.0
2020-Aug-12 03:00 282 8 gusting 13 30.0
2020-Aug-12 02:46 225 8 gusting 12 30.0
2020-Aug-12 02:31 217 6 gusting 13 30.0
2020-Aug-12 02:15 221 9 gusting 13 30.0
2020-Aug-12 02:01 211 9 gusting 14 30.0
2020-Aug-12 01:46 204 9 gusting 13 30.0
2020-Aug-12 01:30 234 9 gusting 13 30.0
2020-Aug-12 01:15 238 10 gusting 14 30.0
2020-Aug-12 01:00 204 6 gusting 13 30.0
2020-Aug-12 00:45 235 8 gusting 13 30.0
2020-Aug-12 00:30 205 7 gusting 13 30.0
2020-Aug-12 00:15 187 7 gusting 13 30.0
2020-Aug-12 00:00 226 6 gusting 11 30.6
2020-Aug-11 23:45 189 9 gusting 12 30.6
2020-Aug-11 23:30 202 8 gusting 13 30.6
2020-Aug-11 23:15 180 9 gusting 13 30.6
2020-Aug-11 23:00 192 7 gusting 13 30.6
2020-Aug-11 22:45 220 8 gusting 13 30.6
2020-Aug-11 22:30 185 7 gusting 12 30.6
2020-Aug-11 22:15 181 7 gusting 11 30.6
2020-Aug-11 22:00 191 7 gusting 11 30.6
2020-Aug-11 21:45 167 6 gusting 11 30.6
2020-Aug-11 21:30 175 7 gusting 11 31.1
2020-Aug-11 21:15 184 7 gusting 11 31.1
2020-Aug-11 21:00 188 6 gusting 10 31.1
2020-Aug-11 20:45 181 6 gusting 10 31.1
2020-Aug-11 20:32 198 6 gusting 11 31.1
2020-Aug-11 20:17 183 7 gusting 10 31.1
2020-Aug-11 20:02 191 7 gusting 11 31.1
2020-Aug-11 19:46 229 6 gusting 10 31.1
2020-Aug-11 19:31 215 7 gusting 10 31.1
2020-Aug-11 19:16 233 7 gusting 10 31.1
2020-Aug-11 19:01 212 6 gusting 9 31.1
2020-Aug-11 18:47 253 6 gusting 10 31.1
2020-Aug-11 18:32 237 7 gusting 12 31.1
2020-Aug-11 18:16 238 6 gusting 9 31.1
2020-Aug-11 18:01 261 6 gusting 10 31.1
2020-Aug-11 17:47 224 6 gusting 11 31.1
2020-Aug-11 17:31 236 6 gusting 9 31.1
2020-Aug-11 17:17 216 5 gusting 9 31.1
2020-Aug-11 17:02 226 5 gusting 9 31.1
2020-Aug-11 16:46 219 7 gusting 10 30.6
2020-Aug-11 16:31 226 6 gusting 10 30.6
2020-Aug-11 16:15 212 6 gusting 11 30.6
2020-Aug-11 16:01 224 6 gusting 11 30.6
2020-Aug-11 15:45 229 7 gusting 10 30.6
2020-Aug-11 15:31 251 8 gusting 13 30.6
2020-Aug-11 15:16 264 8 gusting 12 30.6
2020-Aug-11 15:02 256 10 gusting 13 30.0
2020-Aug-11 14:45 243 6 gusting 13 30.6
2020-Aug-11 14:31 250 8 gusting 14 30.0
2020-Aug-11 14:15 239 8 gusting 13 30.0
2020-Aug-11 14:01 233 8 gusting 13 30.0
2020-Aug-11 13:46 251 11 gusting 13 30.0
2020-Aug-11 13:30 238 6 gusting 10 30.0
2020-Aug-11 13:15 237 7 gusting 13 30.0
2020-Aug-11 13:00 213 7 gusting 13 30.0
2020-Aug-11 12:45 162 6 gusting 13 30.0
2020-Aug-11 12:30 220 7 gusting 13 29.4
2020-Aug-11 12:15 209 7 gusting 13 29.4
2020-Aug-11 12:00 232 8 gusting 13 29.4
2020-Aug-11 11:45 248 9 gusting 13 29.4
2020-Aug-11 11:30 205 6 gusting 12 29.4
2020-Aug-11 11:15 219 8 gusting 12 29.4
2020-Aug-11 11:00 209 9 gusting 13 29.4
2020-Aug-11 10:32 149 6 gusting 12 29.4
2020-Aug-11 10:17 221 6 gusting 12 29.4
2020-Aug-11 10:01 191 7 gusting 12 29.4
2020-Aug-11 09:47 250 6 gusting 12 29.4
2020-Aug-11 09:33 153 8 gusting 12 29.4
2020-Aug-11 09:16 197 9 gusting 12 29.4